| time (UTC) | temp C | wind direction | speed KPH | gust KPH | rain 1hr cm | rain 24hr cm | rain mn cm | humidity % | barometer mb |
| 20260502130520 | 26 | 313 | 3.2 | 8.0 | 0.00 | 0.00 | 0.00 | 43 | 1017.2 |
| 20260502123517 | 26 | 118 | 3.2 | 14.5 | 0.00 | 0.00 | 0.00 | 43 | 1017.6 |
| 20260502122543 | 26 | 105 | 3.2 | 8.0 | 0.00 | 0.00 | 0.00 | 44 | 1017.5 |
| 20260502121519 | 26 | 102 | 4.8 | 14.5 | 0.00 | 0.00 | 0.00 | 43 | 1017.7 |
| 20260502120525 | 26 | 295 | 3.2 | 9.7 | 0.00 | 0.00 | 0.00 | 44 | 1017.9 |
| 20260502115521 | 26 | 105 | 4.8 | 12.9 | 0.00 | 0.00 | 0.00 | 44 | 1018.0 |
| 20260502114517 | 26 | 99 | 6.4 | 16.1 | 0.00 | 0.00 | 0.00 | 44 | 1018.1 |
| 20260502113603 | 26 | 350 | 4.8 | 12.9 | 0.00 | 0.00 | 0.00 | 44 | 1018.2 |
| 20260502112518 | 25 | 167 | 4.8 | 9.7 | 0.00 | 0.00 | 0.00 | 43 | 1018.4 |
| 20260502111524 | 25 | 105 | 6.4 | 11.3 | 0.00 | 0.00 | 0.00 | 45 | 1018.5 |
| 20260502110520 | 25 | 187 | 3.2 | 11.3 | 0.00 | 0.00 | 0.00 | 44 | 1018.6 |
| 20260502105515 | 25 | 193 | 3.2 | 9.7 | 0.00 | 0.00 | 0.00 | 44 | 1018.5 |
| 20260502104521 | 25 | 269 | 4.8 | 11.3 | 0.00 | 0.00 | 0.00 | 44 | 1018.6 |
| 20260502103517 | 25 | 115 | 3.2 | 6.4 | 0.00 | 0.00 | 0.00 | 44 | 1018.8 |
| 20260502102523 | 25 | 190 | 4.8 | 11.3 | 0.00 | 0.00 | 0.00 | 43 | 1018.8 |
| 20260502101519 | 24 | 109 | 3.2 | 9.7 | 0.00 | 0.00 | 0.00 | 45 | 1019.0 |
| 20260502100524 | 23 | 160 | 3.2 | 11.3 | 0.00 | 0.00 | 0.00 | 44 | 1019.1 |
| 20260502091523 | 23 | 156 | 4.8 | 9.7 | 0.00 | 0.00 | 0.00 | 43 | 1019.3 |
| 20260502090519 | 23 | 170 | 4.8 | 11.3 | 0.00 | 0.00 | 0.00 | 41 | 1019.2 |
| 20260502071520 | 20 | 98 | 6.4 | 12.9 | 0.00 | 0.00 | 0.00 | 44 | 1019.5 |
| 20260502070516 | 20 | 104 | 6.4 | 14.5 | 0.00 | 0.00 | 0.00 | 45 | 1019.7 |
| 20260502065522 | 19 | 100 | 8.0 | 16.1 | 0.00 | 0.00 | 0.00 | 45 | 1019.8 |
| 20260502064538 | 19 | 96 | 6.4 | 11.3 | 0.00 | 0.00 | 0.00 | 46 | 1019.8 |
| 20260502063523 | 19 | 103 | 4.8 | 9.7 | 0.00 | 0.00 | 0.00 | 47 | 1019.7 |
| 20260502062559 | 18 | 92 | 3.2 | 6.4 | 0.00 | 0.00 | 0.00 | 48 | 1019.7 |
| 20260502061526 | 17 | 105 | 6.4 | 9.7 | 0.00 | 0.00 | 0.00 | 49 | 1019.6 |
| 20260502060521 | 17 | 98 | 4.8 | 8.0 | 0.00 | 0.00 | 0.00 | 50 | 1019.7 |
| 20260502055516 | 16 | 99 | 4.8 | 9.7 | 0.00 | 0.00 | 0.00 | 52 | 1019.8 |
| 20260502054543 | 15 | 87 | 3.2 | 6.4 | 0.00 | 0.00 | 0.00 | 56 | 1019.6 |
| 20260502053518 | 13 | 84 | 3.2 | 4.8 | 0.00 | 0.00 | 0.00 | 60 | 1019.6 |
| 20260502052529 | 12 | 88 | 3.2 | 4.8 | 0.00 | 0.00 | 0.00 | 65 | 1019.5 |
| 20260502051540 | 12 | 96 | 4.8 | 6.4 | 0.00 | 0.00 | 0.00 | 64 | 1019.6 |
| 20260502050516 | 11 | 89 | 3.2 | 4.8 | 0.00 | 0.00 | 0.00 | 66 | 1019.6 |
| 20260502045521 | 10 | 89 | 3.2 | 4.8 | 0.00 | 0.00 | 0.00 | 71 | 1019.7 |
| 20260502044517 | 8 | 100 | 3.2 | 4.8 | 0.00 | 0.00 | 0.00 | 75 | 1019.8 |
| 20260502043523 | 8 | 79 | 1.6 | 3.2 | 0.00 | 0.00 | 0.00 | 76 | 1019.8 |
| 20260502042519 | 7 | 90 | 3.2 | 4.8 | 0.00 | 0.00 | 0.00 | 79 | 1019.9 |
| 20260502041524 | 7 | 95 | 3.2 | 4.8 | 0.00 | 0.00 | 0.00 | 81 | 1019.9 |
| 20260502040520 | 7 | 95 | 3.2 | 4.8 | 0.00 | 0.00 | 0.00 | 81 | 1019.9 |
| 20260502035516 | 7 | 89 | 3.2 | 4.8 | 0.00 | 0.00 | 0.00 | 80 | 1019.9 |
| 20260502034525 | 7 | 92 | 3.2 | 4.8 | 0.00 | 0.00 | 0.00 | 79 | 1020.1 |
| 20260502033517 | 8 | 92 | 3.2 | 4.8 | 0.00 | 0.00 | 0.00 | 78 | 1020.1 |
| 20260502032544 | 8 | 94 | 3.2 | 3.2 | 0.00 | 0.00 | 0.00 | 77 | 1020.2 |
| 20260502031519 | 8 | 87 | 3.2 | 3.2 | 0.00 | 0.00 | 0.00 | 76 | 1020.2 |
| 20260502030525 | 8 | 101 | 3.2 | 4.8 | 0.00 | 0.00 | 0.00 | 73 | 1020.2 |
| 20260502025523 | 8 | 102 | 3.2 | 4.8 | 0.00 | 0.00 | 0.00 | 73 | 1020.3 |
| 20260502024516 | 9 | 97 | 3.2 | 4.8 | 0.00 | 0.00 | 0.00 | 74 | 1020.4 |
| 20260502023522 | 9 | 100 | 3.2 | 4.8 | 0.00 | 0.00 | 0.00 | 73 | 1020.4 |
| 20260502022518 | 9 | 100 | 3.2 | 4.8 | 0.00 | 0.00 | 0.00 | 73 | 1020.6 |
| 20260502021523 | 10 | 103 | 3.2 | 6.4 | 0.00 | 0.00 | 0.00 | 72 | 1020.6 |
| 20260502020519 | 9 | 108 | 4.8 | 6.4 | 0.00 | 0.00 | 0.00 | 71 | 1020.7 |
| 20260502015525 | 9 | 107 | 4.8 | 6.4 | 0.00 | 0.00 | 0.00 | 72 | 1020.8 |
| 20260502014521 | 9 | 104 | 4.8 | 4.8 | 0.00 | 0.00 | 0.00 | 73 | 1020.8 |
| 20260502013519 | 9 | 101 | 3.2 | 4.8 | 0.00 | 0.00 | 0.00 | 73 | 1021.0 |
| 20260502012522 | 10 | 105 | 4.8 | 6.4 | 0.00 | 0.00 | 0.00 | 71 | 1021.1 |
| 20260502011518 | 10 | 102 | 4.8 | 6.4 | 0.00 | 0.00 | 0.00 | 70 | 1021.2 |
| 20260502010524 | 10 | 105 | 4.8 | 6.4 | 0.00 | 0.00 | 0.00 | 71 | 1021.3 |
| 20260502005540 | 10 | 106 | 4.8 | 4.8 | 0.00 | 0.00 | 0.00 | 71 | 1021.4 |
| 20260502004545 | 10 | 106 | 3.2 | 4.8 | 0.00 | 0.00 | 0.00 | 71 | 1021.4 |
| 20260502003521 | 10 | 102 | 3.2 | 4.8 | 0.00 | 0.00 | 0.00 | 71 | 1021.5 |
| 20260502002517 | 10 | 93 | 1.6 | 3.2 | 0.00 | 0.00 | 0.00 | 69 | 1021.6 |
| 20260502001523 | 11 | 62 | 1.6 | 3.2 | 0.00 | 0.00 | 0.00 | 66 | 1021.7 |
| 20260502000518 | 11 | 82 | 1.6 | 3.2 | 0.00 | 0.00 | 0.00 | 64 | 1021.8 |
| 20260501235524 | 11 | 74 | 1.6 | 3.2 | 0.00 | 0.00 | 0.00 | 64 | 1021.9 |
| 20260501234520 | 12 | 78 | 1.6 | 4.8 | 0.00 | 0.00 | 0.00 | 62 | 1021.9 |
| 20260501233516 | 12 | 99 | 4.8 | 6.4 | 0.00 | 0.00 | 0.00 | 62 | 1021.9 |
| 20260501232523 | 12 | 106 | 4.8 | 8.0 | 0.00 | 0.00 | 0.00 | 62 | 1022.0 |
| 20260501231517 | 12 | 108 | 6.4 | 8.0 | 0.00 | 0.00 | 0.00 | 61 | 1022.0 |
| 20260501230524 | 12 | 106 | 4.8 | 6.4 | 0.00 | 0.00 | 0.00 | 61 | 1022.0 |
| 20260501225519 | 13 | 104 | 4.8 | 6.4 | 0.00 | 0.00 | 0.00 | 61 | 1022.1 |
| 20260501224525 | 13 | 111 | 6.4 | 8.0 | 0.00 | 0.00 | 0.00 | 58 | 1022.2 |
| 20260501223520 | 13 | 104 | 4.8 | 6.4 | 0.00 | 0.00 | 0.00 | 59 | 1022.2 |
| 20260501222516 | 13 | 103 | 4.8 | 6.4 | 0.00 | 0.00 | 0.00 | 60 | 1022.2 |
| 20260501221522 | 13 | 108 | 4.8 | 6.4 | 0.00 | 0.00 | 0.00 | 59 | 1022.3 |
| 20260501220518 | 13 | 97 | 3.2 | 4.8 | 0.00 | 0.00 | 0.00 | 60 | 1022.4 |
| 20260501215523 | 13 | 105 | 4.8 | 6.4 | 0.00 | 0.00 | 0.00 | 60 | 1022.3 |
| 20260501214542 | 14 | 109 | 4.8 | 6.4 | 0.00 | 0.00 | 0.00 | 57 | 1022.4 |
| 20260501213525 | 14 | 107 | 4.8 | 6.4 | 0.00 | 0.00 | 0.00 | 55 | 1022.3 |
| 20260501212521 | 15 | 105 | 4.8 | 6.4 | 0.00 | 0.00 | 0.00 | 55 | 1022.2 |
| 20260501211536 | 14 | 106 | 4.8 | 8.0 | 0.00 | 0.00 | 0.00 | 55 | 1022.3 |
| 20260501210543 | 14 | 102 | 4.8 | 6.4 | 0.00 | 0.00 | 0.00 | 56 | 1022.3 |
| 20260501205558 | 15 | 97 | 3.2 | 3.2 | 0.00 | 0.00 | 0.00 | 56 | 1022.4 |
| 20260501204524 | 15 | 98 | 3.2 | 4.8 | 0.00 | 0.00 | 0.00 | 53 | 1022.5 |
| 20260501203519 | 15 | 101 | 4.8 | 6.4 | 0.00 | 0.00 | 0.00 | 53 | 1022.5 |
| 20260501202525 | 15 | 71 | 3.2 | 4.8 | 0.00 | 0.00 | 0.00 | 54 | 1022.5 |
| 20260501201521 | 15 | 68 | 1.6 | 3.2 | 0.00 | 0.00 | 0.00 | 53 | 1022.5 |
| 20260501200517 | 16 | 65 | 1.6 | 3.2 | 0.00 | 0.00 | 0.00 | 50 | 1022.4 |
| 20260501195522 | 17 | 101 | 4.8 | 6.4 | 0.00 | 0.00 | 0.00 | 47 | 1022.5 |
| 20260501194518 | 17 | 101 | 3.2 | 4.8 | 0.00 | 0.00 | 0.00 | 44 | 1022.4 |
| 20260501193524 | 18 | 106 | 4.8 | 6.4 | 0.00 | 0.00 | 0.00 | 43 | 1022.4 |
| 20260501192520 | 19 | 106 | 3.2 | 4.8 | 0.00 | 0.00 | 0.00 | 41 | 1022.5 |
| 20260501191516 | 19 | 100 | 3.2 | 4.8 | 0.00 | 0.00 | 0.00 | 39 | 1022.4 |
| 20260501190521 | 20 | 98 | 3.2 | 4.8 | 0.00 | 0.00 | 0.00 | 39 | 1022.5 |
| 20260501185517 | 20 | 98 | 4.8 | 8.0 | 0.00 | 0.00 | 0.00 | 38 | 1022.5 |
| 20260501184523 | 21 | 95 | 4.8 | 6.4 | 0.00 | 0.00 | 0.00 | 37 | 1022.4 |
| 20260501183519 | 21 | 86 | 4.8 | 8.0 | 0.00 | 0.00 | 0.00 | 36 | 1022.4 |
| 20260501182525 | 21 | 97 | 4.8 | 8.0 | 0.00 | 0.00 | 0.00 | 35 | 1022.4 |
| 20260501181520 | 22 | 91 | 4.8 | 8.0 | 0.00 | 0.00 | 0.00 | 34 | 1022.4 |
| 20260501180520 | 22 | 100 | 4.8 | 11.3 | 0.00 | 0.00 | 0.00 | 33 | 1022.3 |
| 20260501175522 | 22 | 93 | 3.2 | 8.0 | 0.00 | 0.00 | 0.00 | 33 | 1022.2 |
| 20260501174518 | 23 | 88 | 4.8 | 9.7 | 0.00 | 0.00 | 0.00 | 32 | 1022.2 |
| 20260501173523 | 23 | 110 | 9.7 | 16.1 | 0.00 | 0.00 | 0.00 | 32 | 1022.2 |
| 20260501172519 | 23 | 102 | 6.4 | 12.9 | 0.00 | 0.00 | 0.00 | 31 | 1022.2 |
| 20260501171525 | 23 | 99 | 6.4 | 14.5 | 0.00 | 0.00 | 0.00 | 31 | 1022.1 |
| 20260501170521 | 23 | 102 | 4.8 | 9.7 | 0.00 | 0.00 | 0.00 | 31 | 1022.2 |
| 20260501165516 | 23 | 106 | 8.0 | 14.5 | 0.00 | 0.00 | 0.00 | 31 | 1022.2 |
| 20260501164522 | 23 | 110 | 9.7 | 19.3 | 0.00 | 0.00 | 0.00 | 31 | 1022.3 |
| 20260501163518 | 24 | 102 | 6.4 | 14.5 | 0.00 | 0.00 | 0.00 | 30 | 1022.2 |
| 20260501161540 | 24 | 94 | 4.8 | 11.3 | 0.00 | 0.00 | 0.00 | 29 | 1022.4 |
| 20260501160516 | 24 | 103 | 6.4 | 14.5 | 0.00 | 0.00 | 0.00 | 30 | 1022.6 |
| 20260501155521 | 25 | 112 | 6.4 | 14.5 | 0.00 | 0.00 | 0.00 | 29 | 1022.5 |
| 20260501154537 | 24 | 104 | 8.0 | 16.1 | 0.00 | 0.00 | 0.00 | 30 | 1022.6 |
| 20260501153543 | 24 | 115 | 9.7 | 20.9 | 0.00 | 0.00 | 0.00 | 30 | 1022.7 |
| 20260501152519 | 23 | 111 | 9.7 | 19.3 | 0.00 | 0.00 | 0.00 | 30 | 1022.9 |
| 20260501151544 | 24 | 111 | 11.3 | 25.7 | 0.00 | 0.00 | 0.00 | 30 | 1022.9 |
| 20260501150520 | 24 | 108 | 9.7 | 20.9 | 0.00 | 0.00 | 0.00 | 30 | 1023.1 |
| 20260501145520 | 24 | 109 | 6.4 | 16.1 | 0.00 | 0.00 | 0.00 | 30 | 1023.1 |
| 20260501144526 | 23 | 111 | 12.9 | 22.5 | 0.00 | 0.00 | 0.00 | 30 | 1023.2 |
| 20260501143517 | 24 | 111 | 9.7 | 17.7 | 0.00 | 0.00 | 0.00 | 30 | 1023.1 |
| 20260501142524 | 23 | 110 | 9.7 | 20.9 | 0.00 | 0.00 | 0.00 | 30 | 1023.3 |
| 20260501141519 | 23 | 111 | 12.9 | 24.1 | 0.00 | 0.00 | 0.00 | 30 | 1023.4 |
| 20260501140525 | 23 | 115 | 12.9 | 25.7 | 0.00 | 0.00 | 0.00 | 30 | 1023.5 |
| 20260501135521 | 23 | 113 | 12.9 | 30.6 | 0.00 | 0.00 | 0.00 | 30 | 1023.6 |
| 20260501134516 | 23 | 108 | 12.9 | 29.0 | 0.00 | 0.00 | 0.00 | 31 | 1023.9 |
| 20260501133522 | 23 | 109 | 9.7 | 17.7 | 0.00 | 0.00 | 0.00 | 31 | 1024.0 |
| 20260501132542 | 23 | 100 | 14.5 | 30.6 | 0.00 | 0.00 | 0.00 | 31 | 1024.1 |